sensor_id;sensor_type;location;lat;lon;timestamp;pressure;altitude;pressure_sealevel;temperature;humidity
77321;BME280;66382;52.252;8.780;2023-04-03T00:01:14;102098.75;;;3.30;61.48
77321;BME280;66382;52.252;8.780;2023-04-03T00:03:40;102109.22;;;3.31;61.38
77321;BME280;66382;52.252;8.780;2023-04-03T00:06:06;102109.34;;;3.30;61.46
77321;BME280;66382;52.252;8.780;2023-04-03T00:08:32;102104.84;;;3.17;61.48
77321;BME280;66382;52.252;8.780;2023-04-03T00:10:58;102118.00;;;3.19;61.06
77321;BME280;66382;52.252;8.780;2023-04-03T00:13:25;102123.28;;;3.19;61.60
77321;BME280;66382;52.252;8.780;2023-04-03T00:15:52;102110.22;;;3.03;61.82
77321;BME280;66382;52.252;8.780;2023-04-03T00:18:18;102127.50;;;3.09;61.66
77321;BME280;66382;52.252;8.780;2023-04-03T00:20:44;102123.25;;;3.06;61.82
77321;BME280;66382;52.252;8.780;2023-04-03T00:23:09;102126.09;;;3.03;61.52
77321;BME280;66382;52.252;8.780;2023-04-03T00:25:36;102123.88;;;2.97;61.70
77321;BME280;66382;52.252;8.780;2023-04-03T00:28:03;102123.00;;;2.96;62.15
77321;BME280;66382;52.252;8.780;2023-04-03T00:30:29;102128.28;;;2.96;61.96
77321;BME280;66382;52.252;8.780;2023-04-03T00:32:56;102122.16;;;2.96;62.18
77321;BME280;66382;52.252;8.780;2023-04-03T00:35:23;102124.72;;;2.97;62.02
77321;BME280;66382;52.252;8.780;2023-04-03T00:37:50;102129.25;;;2.95;61.78
77321;BME280;66382;52.252;8.780;2023-04-03T00:40:16;102125.84;;;2.93;62.05
77321;BME280;66382;52.252;8.780;2023-04-03T00:42:43;102132.09;;;2.92;62.32
77321;BME280;66382;52.252;8.780;2023-04-03T00:45:31;102132.47;;;2.86;62.24
77321;BME280;66382;52.252;8.780;2023-04-03T00:48:00;102128.22;;;2.84;62.16
77321;BME280;66382;52.252;8.780;2023-04-03T00:50:26;102122.19;;;2.82;61.88
77321;BME280;66382;52.252;8.780;2023-04-03T00:52:53;102130.44;;;2.77;61.96
77321;BME280;66382;52.252;8.780;2023-04-03T00:55:19;102123.72;;;2.71;62.19
77321;BME280;66382;52.252;8.780;2023-04-03T00:57:45;102133.88;;;2.65;62.20
77321;BME280;66382;52.252;8.780;2023-04-03T01:00:15;102138.69;;;2.58;62.38
77321;BME280;66382;52.252;8.780;2023-04-03T01:02:42;102136.13;;;2.56;62.51
77321;BME280;66382;52.252;8.780;2023-04-03T01:05:09;102141.53;;;2.55;62.56
77321;BME280;66382;52.252;8.780;2023-04-03T01:07:35;102125.19;;;2.48;62.44
77321;BME280;66382;52.252;8.780;2023-04-03T01:10:06;102128.94;;;2.44;62.61
77321;BME280;66382;52.252;8.780;2023-04-03T01:12:33;102137.66;;;2.46;62.69
77321;BME280;66382;52.252;8.780;2023-04-03T01:15:01;102136.81;;;2.46;62.57
77321;BME280;66382;52.252;8.780;2023-04-03T01:17:30;102144.00;;;2.44;62.51
77321;BME280;66382;52.252;8.780;2023-04-03T01:22:58;102135.00;;;2.32;62.75
77321;BME280;66382;52.252;8.780;2023-04-03T01:25:24;102132.47;;;2.30;62.73
77321;BME280;66382;52.252;8.780;2023-04-03T01:27:50;102134.72;;;2.36;62.97
77321;BME280;66382;52.252;8.780;2023-04-03T01:30:18;102125.56;;;2.28;62.63
77321;BME280;66382;52.252;8.780;2023-04-03T01:32:46;102132.47;;;2.30;62.91
77321;BME280;66382;52.252;8.780;2023-04-03T01:35:12;102145.50;;;2.33;62.68
77321;BME280;66382;52.252;8.780;2023-04-03T01:37:38;102144.94;;;2.28;62.64
77321;BME280;66382;52.252;8.780;2023-04-03T01:40:05;102147.94;;;2.22;62.48
77321;BME280;66382;52.252;8.780;2023-04-03T01:42:31;102142.84;;;2.19;62.74
77321;BME280;66382;52.252;8.780;2023-04-03T01:44:56;102149.19;;;2.17;62.74
77321;BME280;66382;52.252;8.780;2023-04-03T01:47:22;102149.38;;;2.13;63.00
77321;BME280;66382;52.252;8.780;2023-04-03T01:49:49;102160.81;;;2.14;62.98
77321;BME280;66382;52.252;8.780;2023-04-03T01:52:15;102157.31;;;2.13;63.02
77321;BME280;66382;52.252;8.780;2023-04-03T01:54:41;102157.50;;;2.10;63.05
77321;BME280;66382;52.252;8.780;2023-04-03T01:57:07;102117.41;;;1.88;63.07
77321;BME280;66382;52.252;8.780;2023-04-03T01:59:32;102152.56;;;2.04;63.25
77321;BME280;66382;52.252;8.780;2023-04-03T02:01:58;102158.72;;;2.05;63.48
77321;BME280;66382;52.252;8.780;2023-04-03T02:04:24;102155.22;;;2.04;63.13
77321;BME280;66382;52.252;8.780;2023-04-03T02:06:51;102165.03;;;2.02;63.03
77321;BME280;66382;52.252;8.780;2023-04-03T02:09:16;102152.66;;;1.88;63.24
77321;BME280;66382;52.252;8.780;2023-04-03T02:11:42;102161.25;;;1.92;63.02
77321;BME280;66382;52.252;8.780;2023-04-03T02:14:08;102162.00;;;1.94;63.21
77321;BME280;66382;52.252;8.780;2023-04-03T02:16:34;102162.19;;;1.91;63.32
77321;BME280;66382;52.252;8.780;2023-04-03T02:18:59;102160.47;;;1.90;63.55
77321;BME280;66382;52.252;8.780;2023-04-03T02:21:25;102165.09;;;1.86;63.85
77321;BME280;66382;52.252;8.780;2023-04-03T02:23:52;102149.59;;;1.80;63.50
77321;BME280;66382;52.252;8.780;2023-04-03T02:26:18;102160.75;;;1.85;63.16
77321;BME280;66382;52.252;8.780;2023-04-03T02:28:44;102167.84;;;1.85;63.17
77321;BME280;66382;52.252;8.780;2023-04-03T02:31:09;102161.78;;;1.83;63.95
77321;BME280;66382;52.252;8.780;2023-04-03T02:33:36;102159.25;;;1.81;63.50
77321;BME280;66382;52.252;8.780;2023-04-03T02:36:03;102152.53;;;1.76;63.48
77321;BME280;66382;52.252;8.780;2023-04-03T02:38:29;102167.06;;;1.83;63.54
77321;BME280;66382;52.252;8.780;2023-04-03T02:41:01;102170.66;;;1.82;63.18
77321;BME280;66382;52.252;8.780;2023-04-03T02:43:27;102174.34;;;1.79;63.48
77321;BME280;66382;52.252;8.780;2023-04-03T02:45:52;102170.00;;;1.78;63.96
77321;BME280;66382;52.252;8.780;2023-04-03T02:48:18;102169.06;;;1.79;63.17
77321;BME280;66382;52.252;8.780;2023-04-03T02:50:44;102171.69;;;1.79;63.76
77321;BME280;66382;52.252;8.780;2023-04-03T02:53:09;102169.13;;;1.78;63.88
77321;BME280;66382;52.252;8.780;2023-04-03T02:55:35;102177.94;;;1.78;63.29
77321;BME280;66382;52.252;8.780;2023-04-03T02:58:02;102165.16;;;1.70;63.45
77321;BME280;66382;52.252;8.780;2023-04-03T03:00:28;102165.53;;;1.64;63.55
77321;BME280;66382;52.252;8.780;2023-04-03T03:02:54;102171.75;;;1.63;63.79
77321;BME280;66382;52.252;8.780;2023-04-03T03:05:20;102184.59;;;1.69;63.85
77321;BME280;66382;52.252;8.780;2023-04-03T03:07:46;102145.00;;;1.54;64.05
77321;BME280;66382;52.252;8.780;2023-04-03T03:10:11;102174.88;;;1.70;63.80
77321;BME280;66382;52.252;8.780;2023-04-03T03:12:37;102175.66;;;1.72;64.19
77321;BME280;66382;52.252;8.780;2023-04-03T03:15:05;102174.09;;;1.68;63.81
77321;BME280;66382;52.252;8.780;2023-04-03T03:17:31;102183.94;;;1.66;63.76
77321;BME280;66382;52.252;8.780;2023-04-03T03:19:57;102179.78;;;1.62;63.61
77321;BME280;66382;52.252;8.780;2023-04-03T03:22:23;102181.72;;;1.58;63.88
77321;BME280;66382;52.252;8.780;2023-04-03T03:24:48;102178.34;;;1.56;63.76
77321;BME280;66382;52.252;8.780;2023-04-03T03:27:14;102181.13;;;1.53;64.16
77321;BME280;66382;52.252;8.780;2023-04-03T03:29:40;102175.19;;;1.49;64.06
77321;BME280;66382;52.252;8.780;2023-04-03T03:32:07;102170.44;;;1.40;64.41
77321;BME280;66382;52.252;8.780;2023-04-03T03:34:32;102187.13;;;1.41;63.52
77321;BME280;66382;52.252;8.780;2023-04-03T03:36:58;102185.63;;;1.37;63.81
77321;BME280;66382;52.252;8.780;2023-04-03T03:39:24;102187.50;;;1.35;64.00
77321;BME280;66382;52.252;8.780;2023-04-03T03:41:49;102182.28;;;1.33;64.27
77321;BME280;66382;52.252;8.780;2023-04-03T03:44:15;102183.31;;;1.31;64.30
77321;BME280;66382;52.252;8.780;2023-04-03T03:46:41;102182.53;;;1.28;64.58
77321;BME280;66382;52.252;8.780;2023-04-03T03:49:08;102194.13;;;1.26;64.57
77321;BME280;66382;52.252;8.780;2023-04-03T03:51:34;102191.50;;;1.26;64.33
77321;BME280;66382;52.252;8.780;2023-04-03T03:53:59;102171.16;;;1.12;64.76
77321;BME280;66382;52.252;8.780;2023-04-03T03:56:25;102192.81;;;1.19;64.46
77321;BME280;66382;52.252;8.780;2023-04-03T03:58:51;102191.09;;;1.18;64.16
77321;BME280;66382;52.252;8.780;2023-04-03T04:01:17;102190.31;;;1.16;64.20
77321;BME280;66382;52.252;8.780;2023-04-03T04:03:43;102191.34;;;1.13;63.93
77321;BME280;66382;52.252;8.780;2023-04-03T04:06:10;102189.91;;;1.07;64.59
77321;BME280;66382;52.252;8.780;2023-04-03T04:08:36;102188.59;;;0.99;64.85
77321;BME280;66382;52.252;8.780;2023-04-03T04:11:02;102196.38;;;1.02;64.42
77321;BME280;66382;52.252;8.780;2023-04-03T04:13:28;102194.66;;;1.01;65.05
77321;BME280;66382;52.252;8.780;2023-04-03T04:15:53;102193.81;;;1.00;64.93
77321;BME280;66382;52.252;8.780;2023-04-03T04:18:19;102207.09;;;0.99;64.13
77321;BME280;66382;52.252;8.780;2023-04-03T04:20:45;102210.69;;;0.98;64.48
77321;BME280;66382;52.252;8.780;2023-04-03T04:23:12;102208.09;;;0.96;64.80
77321;BME280;66382;52.252;8.780;2023-04-03T04:25:38;102212.72;;;0.93;65.33
77321;BME280;66382;52.252;8.780;2023-04-03T04:28:04;102216.38;;;0.90;64.51
77321;BME280;66382;52.252;8.780;2023-04-03T04:30:29;102213.75;;;0.90;64.89
77321;BME280;66382;52.252;8.780;2023-04-03T04:32:55;102211.16;;;0.89;64.57
77321;BME280;66382;52.252;8.780;2023-04-03T04:35:21;102216.63;;;0.85;64.70
77321;BME280;66382;52.252;8.780;2023-04-03T04:37:47;102221.72;;;0.89;65.30
77321;BME280;66382;52.252;8.780;2023-04-03T04:40:14;102214.75;;;0.88;64.89
77321;BME280;66382;52.252;8.780;2023-04-03T04:42:40;102207.34;;;0.78;64.89
77321;BME280;66382;52.252;8.780;2023-04-03T04:45:06;102209.06;;;0.79;65.17
77321;BME280;66382;52.252;8.780;2023-04-03T04:47:32;102217.47;;;0.86;64.77
77321;BME280;66382;52.252;8.780;2023-04-03T04:49:58;102222.84;;;0.84;64.43
77321;BME280;66382;52.252;8.780;2023-04-03T04:52:23;102221.31;;;0.80;64.60
77321;BME280;66382;52.252;8.780;2023-04-03T04:54:49;102226.66;;;0.79;65.38
77321;BME280;66382;52.252;8.780;2023-04-03T04:57:16;102222.63;;;0.72;65.43
77321;BME280;66382;52.252;8.780;2023-04-03T04:59:42;102222.91;;;0.67;65.05
77321;BME280;66382;52.252;8.780;2023-04-03T05:02:07;102221.34;;;0.63;65.26
77321;BME280;66382;52.252;8.780;2023-04-03T05:04:33;102223.94;;;0.64;65.71
77321;BME280;66382;52.252;8.780;2023-04-03T05:06:59;102218.38;;;0.69;65.28
77321;BME280;66382;52.252;8.780;2023-04-03T05:09:25;102209.97;;;0.62;65.16
77321;BME280;66382;52.252;8.780;2023-04-03T05:11:50;102217.34;;;0.72;64.99
77321;BME280;66382;52.252;8.780;2023-04-03T05:14:18;102232.09;;;0.76;65.49
77321;BME280;66382;52.252;8.780;2023-04-03T05:16:43;102231.09;;;0.78;65.42
77321;BME280;66382;52.252;8.780;2023-04-03T05:19:09;102235.19;;;0.84;65.85
77321;BME280;66382;52.252;8.780;2023-04-03T05:21:35;102223.88;;;0.82;65.67
77321;BME280;66382;52.252;8.780;2023-04-03T05:24:01;102230.78;;;0.84;65.62
77321;BME280;66382;52.252;8.780;2023-04-03T05:26:27;102248.50;;;0.98;65.75
77321;BME280;66382;52.252;8.780;2023-04-03T05:28:53;102249.63;;;1.10;65.97
77321;BME280;66382;52.252;8.780;2023-04-03T05:31:20;102246.66;;;1.32;66.13
77321;BME280;66382;52.252;8.780;2023-04-03T05:33:45;102252.09;;;1.61;66.15
77321;BME280;66382;52.252;8.780;2023-04-03T05:36:11;102256.00;;;2.00;66.28
77321;BME280;66382;52.252;8.780;2023-04-03T05:38:37;102248.47;;;2.38;66.55
77321;BME280;66382;52.252;8.780;2023-04-03T05:41:03;102251.78;;;2.85;66.73
77321;BME280;66382;52.252;8.780;2023-04-03T05:43:28;102261.03;;;3.20;65.28
77321;BME280;66382;52.252;8.780;2023-04-03T05:45:54;102259.41;;;3.59;66.22
77321;BME280;66382;52.252;8.780;2023-04-03T05:48:21;102268.25;;;4.13;66.52
77321;BME280;66382;52.252;8.780;2023-04-03T05:50:47;102266.59;;;4.50;63.95
77321;BME280;66382;52.252;8.780;2023-04-03T05:53:17;102275.97;;;4.81;63.21
77321;BME280;66382;52.252;8.780;2023-04-03T05:55:44;102269.03;;;5.17;61.84
77321;BME280;66382;52.252;8.780;2023-04-03T05:58:10;102278.19;;;5.50;61.76
77321;BME280;66382;52.252;8.780;2023-04-03T06:00:35;102271.56;;;5.79;61.97
77321;BME280;66382;52.252;8.780;2023-04-03T06:03:01;102271.00;;;6.11;62.61
77321;BME280;66382;52.252;8.780;2023-04-03T06:05:28;102281.13;;;6.41;60.97
77321;BME280;66382;52.252;8.780;2023-04-03T06:07:55;102280.44;;;6.51;59.85
77321;BME280;66382;52.252;8.780;2023-04-03T06:10:21;102283.88;;;6.75;59.91
77321;BME280;66382;52.252;8.780;2023-04-03T06:12:46;102282.66;;;7.02;59.78
77321;BME280;66382;52.252;8.780;2023-04-03T06:15:12;102246.84;;;7.27;59.19
77321;BME280;66382;52.252;8.780;2023-04-03T06:17:38;102280.91;;;7.89;58.40
77321;BME280;66382;52.252;8.780;2023-04-03T06:20:04;102271.44;;;8.17;57.50
77321;BME280;66382;52.252;8.780;2023-04-03T06:22:32;102276.63;;;8.51;57.17
77321;BME280;66382;52.252;8.780;2023-04-03T06:24:57;102289.56;;;8.77;55.48
77321;BME280;66382;52.252;8.780;2023-04-03T06:27:23;102282.69;;;9.05;54.61
77321;BME280;66382;52.252;8.780;2023-04-03T06:29:49;102272.41;;;9.10;55.82
77321;BME280;66382;52.252;8.780;2023-04-03T06:32:14;102280.78;;;8.96;54.83
77321;BME280;66382;52.252;8.780;2023-04-03T06:34:40;102283.75;;;8.93;53.73
77321;BME280;66382;52.252;8.780;2023-04-03T06:37:06;102292.63;;;8.93;54.84
77321;BME280;66382;52.252;8.780;2023-04-03T06:39:33;102295.63;;;9.10;54.18
77321;BME280;66382;52.252;8.780;2023-04-03T06:41:59;102292.97;;;9.19;54.24
77321;BME280;66382;52.252;8.780;2023-04-03T06:44:24;102291.28;;;9.68;55.43
77321;BME280;66382;52.252;8.780;2023-04-03T06:46:50;102293.28;;;9.96;54.31
77321;BME280;66382;52.252;8.780;2023-04-03T06:49:16;102302.44;;;10.03;52.25
77321;BME280;66382;52.252;8.780;2023-04-03T06:51:41;102309.06;;;10.18;55.56
77321;BME280;66382;52.252;8.780;2023-04-03T06:54:07;102310.06;;;10.17;54.13
77321;BME280;66382;52.252;8.780;2023-04-03T06:56:35;102310.66;;;10.30;53.69
77321;BME280;66382;52.252;8.780;2023-04-03T06:59:00;102315.56;;;10.64;53.77
77321;BME280;66382;52.252;8.780;2023-04-03T07:01:28;102311.59;;;10.78;52.70
77321;BME280;66382;52.252;8.780;2023-04-03T07:03:55;102323.78;;;11.00;53.79
77321;BME280;66382;52.252;8.780;2023-04-03T07:06:21;102322.81;;;11.29;56.05
77321;BME280;66382;52.252;8.780;2023-04-03T07:08:47;102320.78;;;11.68;52.91
77321;BME280;66382;52.252;8.780;2023-04-03T07:11:13;102320.59;;;11.97;48.25
77321;BME280;66382;52.252;8.780;2023-04-03T07:13:40;102326.59;;;12.27;54.29
77321;BME280;66382;52.252;8.780;2023-04-03T07:16:07;102334.97;;;12.42;51.83
77321;BME280;66382;52.252;8.780;2023-04-03T07:18:33;102338.72;;;12.49;52.83
77321;BME280;66382;52.252;8.780;2023-04-03T07:20:59;102328.66;;;12.77;48.88
77321;BME280;66382;52.252;8.780;2023-04-03T07:23:25;102335.09;;;12.84;49.08
77321;BME280;66382;52.252;8.780;2023-04-03T07:25:51;102337.91;;;13.01;50.91
77321;BME280;66382;52.252;8.780;2023-04-03T07:28:18;102353.41;;;13.07;50.42
77321;BME280;66382;52.252;8.780;2023-04-03T07:30:47;102346.91;;;12.91;51.72
77321;BME280;66382;52.252;8.780;2023-04-03T07:33:14;102355.56;;;13.03;50.74
77321;BME280;66382;52.252;8.780;2023-04-03T07:35:41;102358.41;;;13.02;51.43
77321;BME280;66382;52.252;8.780;2023-04-03T07:38:07;102360.84;;;13.13;50.09
77321;BME280;66382;52.252;8.780;2023-04-03T07:40:33;102360.13;;;13.29;49.16
77321;BME280;66382;52.252;8.780;2023-04-03T07:42:59;102366.16;;;13.65;50.09
77321;BME280;66382;52.252;8.780;2023-04-03T07:45:25;102359.16;;;13.89;53.63
77321;BME280;66382;52.252;8.780;2023-04-03T07:47:52;102348.50;;;13.79;50.29
77321;BME280;66382;52.252;8.780;2023-04-03T07:50:18;102361.84;;;13.81;48.63
77321;BME280;66382;52.252;8.780;2023-04-03T07:52:44;102350.00;;;13.73;49.57
77321;BME280;66382;52.252;8.780;2023-04-03T07:55:10;102363.72;;;13.96;48.41
77321;BME280;66382;52.252;8.780;2023-04-03T07:57:36;102367.13;;;14.15;50.86
77321;BME280;66382;52.252;8.780;2023-04-03T08:00:02;102367.13;;;14.23;46.39
77321;BME280;66382;52.252;8.780;2023-04-03T08:02:28;102365.91;;;14.09;49.65
77321;BME280;66382;52.252;8.780;2023-04-03T08:04:55;102367.78;;;14.01;48.24
77321;BME280;66382;52.252;8.780;2023-04-03T08:07:21;102378.75;;;14.15;48.25
77321;BME280;66382;52.252;8.780;2023-04-03T08:09:47;102378.44;;;14.35;47.88
77321;BME280;66382;52.252;8.780;2023-04-03T08:12:12;102367.16;;;14.39;48.97
77321;BME280;66382;52.252;8.780;2023-04-03T08:14:38;102370.00;;;14.30;47.37
77321;BME280;66382;52.252;8.780;2023-04-03T08:17:04;102362.75;;;14.38;44.10
77321;BME280;66382;52.252;8.780;2023-04-03T08:19:29;102359.25;;;14.54;48.84
77321;BME280;66382;52.252;8.780;2023-04-03T08:21:57;102348.13;;;14.57;48.99
77321;BME280;66382;52.252;8.780;2023-04-03T08:24:22;102353.66;;;14.48;42.25
77321;BME280;66382;52.252;8.780;2023-04-03T08:26:48;102360.06;;;14.30;49.39
77321;BME280;66382;52.252;8.780;2023-04-03T08:29:14;102364.09;;;14.26;48.32
77321;BME280;66382;52.252;8.780;2023-04-03T08:31:39;102358.75;;;14.67;47.78
77321;BME280;66382;52.252;8.780;2023-04-03T08:34:05;102357.50;;;15.02;49.21
77321;BME280;66382;52.252;8.780;2023-04-03T08:36:31;102353.78;;;14.95;47.03
77321;BME280;66382;52.252;8.780;2023-04-03T08:38:58;102348.38;;;15.12;48.05
77321;BME280;66382;52.252;8.780;2023-04-03T08:41:29;102362.78;;;15.35;51.40
77321;BME280;66382;52.252;8.780;2023-04-03T08:44:16;102353.03;;;16.05;51.86
77321;BME280;66382;52.252;8.780;2023-04-03T08:46:55;102350.06;;;16.38;49.70
77321;BME280;66382;52.252;8.780;2023-04-03T08:49:26;102360.78;;;16.31;47.90
77321;BME280;66382;52.252;8.780;2023-04-03T08:51:54;102351.84;;;15.76;45.58
77321;BME280;66382;52.252;8.780;2023-04-03T08:54:28;102352.97;;;15.42;48.62
77321;BME280;66382;52.252;8.780;2023-04-03T08:56:56;102345.91;;;15.41;49.47
77321;BME280;66382;52.252;8.780;2023-04-03T08:59:27;102351.25;;;15.49;48.17
77321;BME280;66382;52.252;8.780;2023-04-03T09:01:53;102344.97;;;15.57;45.60
77321;BME280;66382;52.252;8.780;2023-04-03T09:04:20;102349.75;;;15.47;47.32
77321;BME280;66382;52.252;8.780;2023-04-03T09:06:50;102340.66;;;14.84;46.81
77321;BME280;66382;52.252;8.780;2023-04-03T09:09:31;102333.88;;;14.88;48.45
77321;BME280;66382;52.252;8.780;2023-04-03T09:12:04;102326.13;;;14.85;43.74
77321;BME280;66382;52.252;8.780;2023-04-03T09:14:36;102346.56;;;14.79;44.62
77321;BME280;66382;52.252;8.780;2023-04-03T09:17:06;102341.84;;;14.81;52.35
77321;BME280;66382;52.252;8.780;2023-04-03T09:19:41;102334.31;;;15.24;50.05
77321;BME280;66382;52.252;8.780;2023-04-03T09:22:16;102343.59;;;15.61;49.92
77321;BME280;66382;52.252;8.780;2023-04-03T09:24:45;102333.47;;;15.63;46.60
77321;BME280;66382;52.252;8.780;2023-04-03T09:27:12;102336.97;;;15.72;46.00
77321;BME280;66382;52.252;8.780;2023-04-03T09:29:40;102336.59;;;16.06;45.89
77321;BME280;66382;52.252;8.780;2023-04-03T09:32:19;102330.53;;;16.27;49.96
77321;BME280;66382;52.252;8.780;2023-04-03T09:34:47;102350.00;;;16.00;42.38
77321;BME280;66382;52.252;8.780;2023-04-03T09:37:34;102329.56;;;15.66;48.82
77321;BME280;66382;52.252;8.780;2023-04-03T09:40:01;102331.88;;;15.38;45.53
77321;BME280;66382;52.252;8.780;2023-04-03T09:42:30;102333.53;;;15.47;48.24
77321;BME280;66382;52.252;8.780;2023-04-03T09:44:57;102320.97;;;15.23;45.13
77321;BME280;66382;52.252;8.780;2023-04-03T09:47:24;102323.91;;;15.05;36.06
77321;BME280;66382;52.252;8.780;2023-04-03T09:49:50;102309.88;;;15.10;45.33
77321;BME280;66382;52.252;8.780;2023-04-03T09:52:22;102326.88;;;15.58;51.18
77321;BME280;66382;52.252;8.780;2023-04-03T09:54:49;102333.47;;;15.63;50.00
77321;BME280;66382;52.252;8.780;2023-04-03T09:57:16;102313.31;;;15.35;38.13
77321;BME280;66382;52.252;8.780;2023-04-03T09:59:46;102316.31;;;15.09;44.73
77321;BME280;66382;52.252;8.780;2023-04-03T10:02:29;102305.38;;;14.94;47.45
77321;BME280;66382;52.252;8.780;2023-04-03T10:04:57;102310.44;;;14.80;42.51
77321;BME280;66382;52.252;8.780;2023-04-03T10:07:29;102318.91;;;14.45;41.07
77321;BME280;66382;52.252;8.780;2023-04-03T10:09:56;102306.59;;;14.42;46.15
77321;BME280;66382;52.252;8.780;2023-04-03T10:12:23;102311.66;;;14.70;44.92
77321;BME280;66382;52.252;8.780;2023-04-03T10:14:55;102310.09;;;14.92;46.81
77321;BME280;66382;52.252;8.780;2023-04-03T10:17:28;102301.53;;;14.72;37.74
77321;BME280;66382;52.252;8.780;2023-04-03T10:20:02;102297.13;;;14.46;45.12
77321;BME280;66382;52.252;8.780;2023-04-03T10:22:37;102291.94;;;14.45;44.49
77321;BME280;66382;52.252;8.780;2023-04-03T10:25:12;102281.84;;;14.22;44.70
77321;BME280;66382;52.252;8.780;2023-04-03T10:27:49;102290.72;;;13.73;42.20
77321;BME280;66382;52.252;8.780;2023-04-03T10:30:31;102295.63;;;13.27;44.28
77321;BME280;66382;52.252;8.780;2023-04-03T10:33:08;102303.69;;;13.27;43.35
77321;BME280;66382;52.252;8.780;2023-04-03T10:35:45;102292.59;;;12.96;41.36
77321;BME280;66382;52.252;8.780;2023-04-03T10:38:20;102297.00;;;12.27;38.31
77321;BME280;66382;52.252;8.780;2023-04-03T10:40:54;102285.00;;;11.68;42.28
77321;BME280;66382;52.252;8.780;2023-04-03T10:43:30;102277.47;;;10.98;43.35
77321;BME280;66382;52.252;8.780;2023-04-03T10:46:02;102290.94;;;10.88;43.83
77321;BME280;66382;52.252;8.780;2023-04-03T10:48:47;102281.53;;;11.02;46.44
77321;BME280;66382;52.252;8.780;2023-04-03T10:51:23;102278.09;;;11.10;47.13
77321;BME280;66382;52.252;8.780;2023-04-03T10:53:56;102286.50;;;10.97;46.22
77321;BME280;66382;52.252;8.780;2023-04-03T10:56:30;102274.47;;;10.64;43.52
77321;BME280;66382;52.252;8.780;2023-04-03T10:59:02;102279.03;;;10.24;44.94
77321;BME280;66382;52.252;8.780;2023-04-03T11:01:35;102271.13;;;10.03;43.77
77321;BME280;66382;52.252;8.780;2023-04-03T11:04:04;102280.31;;;9.91;44.22
77321;BME280;66382;52.252;8.780;2023-04-03T11:06:35;102279.63;;;9.79;45.60
77321;BME280;66382;52.252;8.780;2023-04-03T11:09:05;102270.88;;;9.77;46.63
77321;BME280;66382;52.252;8.780;2023-04-03T11:11:37;102268.31;;;9.95;45.51
77321;BME280;66382;52.252;8.780;2023-04-03T11:14:10;102270.28;;;9.93;46.42
77321;BME280;66382;52.252;8.780;2023-04-03T11:16:42;102266.06;;;9.90;45.00
77321;BME280;66382;52.252;8.780;2023-04-03T11:19:16;102264.91;;;9.64;45.28
77321;BME280;66382;52.252;8.780;2023-04-03T11:21:46;102262.50;;;9.51;45.78
77321;BME280;66382;52.252;8.780;2023-04-03T11:24:20;102261.56;;;9.62;45.14
77321;BME280;66382;52.252;8.780;2023-04-03T11:26:49;102261.84;;;9.78;47.08
77321;BME280;66382;52.252;8.780;2023-04-03T11:29:22;102262.13;;;10.14;47.90
77321;BME280;66382;52.252;8.780;2023-04-03T11:32:06;102257.59;;;10.15;43.52
77321;BME280;66382;52.252;8.780;2023-04-03T11:34:36;102258.16;;;9.99;44.14
77321;BME280;66382;52.252;8.780;2023-04-03T11:37:10;102256.34;;;9.89;43.85
77321;BME280;66382;52.252;8.780;2023-04-03T11:39:39;102243.78;;;9.90;45.91
77321;BME280;66382;52.252;8.780;2023-04-03T11:42:17;102242.66;;;9.73;45.42
77321;BME280;66382;52.252;8.780;2023-04-03T11:44:51;102240.81;;;9.83;44.93
77321;BME280;66382;52.252;8.780;2023-04-03T11:47:44;102235.75;;;9.71;46.38
77321;BME280;66382;52.252;8.780;2023-04-03T11:50:31;102240.66;;;9.56;45.71
77321;BME280;66382;52.252;8.780;2023-04-03T11:52:59;102238.09;;;9.44;44.93
77321;BME280;66382;52.252;8.780;2023-04-03T11:55:52;102235.44;;;9.44;47.01
77321;BME280;66382;52.252;8.780;2023-04-03T11:58:19;102247.59;;;9.58;45.86
77321;BME280;66382;52.252;8.780;2023-04-03T12:00:49;102224.72;;;9.54;45.47
77321;BME280;66382;52.252;8.780;2023-04-03T12:09:29;102235.88;;;9.40;46.65
77321;BME280;66382;52.252;8.780;2023-04-03T12:11:56;102233.47;;;9.46;44.88
77321;BME280;66382;52.252;8.780;2023-04-03T12:14:24;102220.06;;;9.46;44.96
77321;BME280;66382;52.252;8.780;2023-04-03T12:16:53;102232.22;;;9.60;45.74
77321;BME280;66382;52.252;8.780;2023-04-03T12:19:34;102221.22;;;9.54;46.58
77321;BME280;66382;52.252;8.780;2023-04-03T12:22:16;102220.50;;;9.52;47.06
77321;BME280;66382;52.252;8.780;2023-04-03T12:24:44;102215.03;;;9.53;45.25
77321;BME280;66382;52.252;8.780;2023-04-03T12:27:32;102216.03;;;9.52;47.50
77321;BME280;66382;52.252;8.780;2023-04-03T12:30:04;102216.56;;;9.56;44.58
77321;BME280;66382;52.252;8.780;2023-04-03T12:32:55;102220.06;;;9.46;45.38
77321;BME280;66382;52.252;8.780;2023-04-03T12:35:28;102211.34;;;9.25;45.88
77321;BME280;66382;52.252;8.780;2023-04-03T12:38:17;102206.47;;;8.99;46.53
77321;BME280;66382;52.252;8.780;2023-04-03T12:40:51;102203.03;;;8.88;45.12
77321;BME280;66382;52.252;8.780;2023-04-03T12:43:30;102194.16;;;8.87;46.86
77321;BME280;66382;52.252;8.780;2023-04-03T12:46:04;102188.28;;;8.93;45.48
77321;BME280;66382;52.252;8.780;2023-04-03T12:48:46;102186.50;;;9.03;46.10
77321;BME280;66382;52.252;8.780;2023-04-03T12:51:13;102175.66;;;9.05;45.86
77321;BME280;66382;52.252;8.780;2023-04-03T12:53:40;102178.22;;;9.26;45.31
77321;BME280;66382;52.252;8.780;2023-04-03T12:56:20;102162.59;;;9.41;46.65
77321;BME280;66382;52.252;8.780;2023-04-03T12:58:47;102166.13;;;9.61;44.96
77321;BME280;66382;52.252;8.780;2023-04-03T13:01:15;102174.69;;;9.74;46.23
77321;BME280;66382;52.252;8.780;2023-04-03T13:03:45;102179.94;;;9.66;45.18
77321;BME280;66382;52.252;8.780;2023-04-03T13:06:17;102171.63;;;9.50;44.28
77321;BME280;66382;52.252;8.780;2023-04-03T13:08:49;102175.97;;;9.41;45.24
77321;BME280;66382;52.252;8.780;2023-04-03T13:11:14;102166.69;;;9.35;43.57
77321;BME280;66382;52.252;8.780;2023-04-03T13:13:54;102169.38;;;9.45;46.64